Klamath Falls, OR

5:54 AM PDT on September 21, 2014 (GMT -0700)
MesoWest Butte Creek (OR 140 MP 35.0) OR US ODOT | Change Station
CLOSE
Current Station
Personal Weather Station
Location: Klamath Falls, OR
Elevation: 5000 ft
Nearby Weather Stations

Elev 5000 ft 42.38 °N, 122.24 °W | Updated 31 minutes ago

Clear
Clear
49.0 °F
Feels Like 49.0 °F
N
0.0
Wind Variable Wind from North
Gusts 1.0 mph

Today
High -- | Low -- °F
--% Chance of Precip.
Yesterday
High -- | Low -- °F
Precip. -- in
6:55 AM 7:07 PM
Waning Crescent, 7% visible
Pressure 29.91 in
Visibility 10.0 miles
Clouds Clear
Dew Point 38.0 °F
Humidity 66%
Rainfall -999.00 in
Snow Depth 0 in , 0 in , 1 in
UV 0 out of 12
Pollen 4.00 out of 12
Air Quality Not available.
Flu Activity Not available.
METAR KLMT 211153Z AUTO 00000KT 10SM CLR 10/06 A3003 RMK AO2 SLP126 T01000061 10206 20094 50001

More Conditions Fewer Conditions

Pressure 29.91 in
Visibility 10.0 miles
Clouds Clear
Dew Point 38.0 °F
Humidity 66%
Rainfall -999.00 in
Snow Depth 0 in , 0 in , 1 in
UV 0 out of 12
Pollen 4.00 out of 12
Air Quality Not available.
Flu Activity Not available.
METAR KLMT 211153Z AUTO 00000KT 10SM CLR 10/06 A3003 RMK AO2 SLP126 T01000061 10206 20094 50001

More Conditions Fewer Conditions

10-Day Weather Forecast

Almanac

Astronomy

Sep. 21, 2014 Rise Set
Actual Time 6:55 AM PDT 7:07 PM PDT
Civil Twilight 6:27 AM PDT 7:35 PM PDT
Nautical Twilight 5:54 AM PDT 8:08 PM PDT
Astronomical Twilight 5:20 AM PDT 8:42 PM PDT
Moon 4:31 AM PDT 5:48 PM PDT
Length of Visible Light 13h 08m
Length of Day
12h 12m
Tomorrow will be 2m 50s shorter.
Waning Crescent, 7% of the Moon is Illuminated
Today
Waning Crescent
Sep 24
New
Oct 1
First Quarter
Oct 8
Full
Oct 15
Last Quarter

Today's Extremes

State Highs State Lows

Community

WunderPhotos

Upload Photos

1,755,127 photos uploaded!

Nearby

Snow Depth

Station Depth Elevation
Bowman Springs 0 in 4580 ft
Hogg Pass 0 in 4760 ft
Greenpoint 1 in 3200 ft
North Fork 0 in 3120 ft
Lake Creek R.S. 0 in 5200 ft

Earthquake Activity

City Distance Mag. Time & Date
No recent earthquake activity has been reported nearby.
Minimum magnitude displayed is 2.5.

Coastal Water Temperatures

Place Temperature
No Stations Reporting

Nearby Weather Stations